createdAt,value
2018-12-12T00:00:41.026Z,102360.62
2018-12-12T00:03:09.696Z,102361.80
2018-12-12T00:05:38.516Z,102372.50
2018-12-12T00:08:07.583Z,102369.45
2018-12-12T00:10:36.859Z,102372.36
2018-12-12T00:13:05.712Z,102373.06
2018-12-12T00:15:34.484Z,102377.03
2018-12-12T00:18:03.704Z,102374.80
2018-12-12T00:20:33.142Z,102379.69
2018-12-12T00:23:01.830Z,102381.48
2018-12-12T00:25:30.619Z,102381.48
2018-12-12T00:27:59.405Z,102388.59
2018-12-12T00:30:28.692Z,102381.56
2018-12-12T00:32:57.372Z,102382.41
2018-12-12T00:35:26.207Z,102388.15
2018-12-12T00:37:54.870Z,102383.80
2018-12-12T00:40:25.780Z,102388.22
2018-12-12T00:42:54.645Z,102396.58
2018-12-12T00:45:24.537Z,102393.70
2018-12-12T00:47:53.418Z,102392.91
2018-12-12T00:50:22.263Z,102393.22
2018-12-12T00:52:52.402Z,102398.96
2018-12-12T00:55:21.052Z,102393.45
2018-12-12T00:57:50.219Z,102398.28
2018-12-12T01:00:19.600Z,102403.52
2018-12-12T01:02:48.321Z,102406.94
2018-12-12T01:05:17.120Z,102409.19
2018-12-12T01:07:46.308Z,102410.06
2018-12-12T01:10:15.205Z,102407.62
2018-12-12T01:12:44.044Z,102403.97
2018-12-12T01:15:12.785Z,102409.36
2018-12-12T01:17:41.652Z,102416.42
2018-12-12T01:20:11.054Z,102421.81
2018-12-12T01:22:40.325Z,102424.52
2018-12-12T01:25:10.272Z,102427.10
2018-12-12T01:27:40.226Z,102433.60
2018-12-12T01:30:09.277Z,102430.16
2018-12-12T01:32:37.991Z,102435.55
2018-12-12T01:35:06.855Z,102435.93
2018-12-12T01:37:35.503Z,102440.93
2018-12-12T01:40:05.208Z,102434.19
2018-12-12T01:42:34.990Z,102437.31
2018-12-12T01:45:03.833Z,102431.42
2018-12-12T01:47:32.464Z,102433.92
2018-12-12T01:50:01.330Z,102428.59
2018-12-12T01:52:29.965Z,102431.27
2018-12-12T01:54:58.601Z,102432.50
2018-12-12T01:57:28.518Z,102428.47
2018-12-12T01:59:57.302Z,102432.16
2018-12-12T02:02:26.143Z,102432.12
2018-12-12T02:04:55.005Z,102435.59
2018-12-12T02:07:23.741Z,102434.23
2018-12-12T02:09:53.602Z,102434.27
2018-12-12T02:12:22.308Z,102437.89
2018-12-12T02:14:50.961Z,102439.19
2018-12-12T02:17:19.605Z,102440.60
2018-12-12T02:19:48.483Z,102437.52
2018-12-12T02:22:18.998Z,102443.75
2018-12-12T02:24:47.620Z,102441.98
2018-12-12T02:27:17.289Z,102438.48
2018-12-12T02:29:45.900Z,102442.02
2018-12-12T02:32:14.555Z,102446.91
2018-12-12T02:34:43.389Z,102447.75
2018-12-12T02:37:12.008Z,102451.02
2018-12-12T02:39:40.844Z,102450.20
2018-12-12T02:42:09.548Z,102446.17
2018-12-12T02:44:38.279Z,102448.73
2018-12-12T02:47:07.196Z,102441.48
2018-12-12T02:49:36.113Z,102442.87
2018-12-12T02:52:05.111Z,102451.43
2018-12-12T02:54:33.840Z,102446.52
2018-12-12T02:57:03.024Z,102458.70
2018-12-12T02:59:31.695Z,102459.52
2018-12-12T03:02:00.434Z,102470.97
2018-12-12T03:04:29.337Z,102471.50
2018-12-12T03:06:58.078Z,102467.34
2018-12-12T03:09:26.699Z,102460.78
2018-12-12T03:11:55.387Z,102462.93
2018-12-12T03:14:24.039Z,102463.87
2018-12-12T03:16:52.694Z,102466.88
2018-12-12T03:19:21.584Z,102470.72
2018-12-12T03:21:50.190Z,102473.75
2018-12-12T03:24:18.856Z,102468.38
2018-12-12T03:26:47.586Z,102466.94
2018-12-12T03:29:17.322Z,102471.76
2018-12-12T03:31:45.963Z,102470.13
2018-12-12T03:34:14.726Z,102473.14
2018-12-12T03:36:43.392Z,102469.58
2018-12-12T03:39:12.056Z,102465.51
2018-12-12T03:41:40.917Z,102464.12
2018-12-12T03:44:09.651Z,102466.42
2018-12-12T03:46:38.445Z,102466.90
2018-12-12T03:49:07.235Z,102470.50
2018-12-12T03:51:35.914Z,102477.66
2018-12-12T03:54:04.625Z,102477.59
2018-12-12T03:56:33.469Z,102478.38
2018-12-12T03:59:08.732Z,102475.80
2018-12-12T04:01:37.583Z,102476.67
2018-12-12T04:04:06.334Z,102478.03
2018-12-12T04:06:34.968Z,102475.80
2018-12-12T04:09:04.733Z,102481.88
2018-12-12T04:11:33.499Z,102476.95
2018-12-12T04:14:02.184Z,102478.16
2018-12-12T04:16:32.376Z,102482.98
2018-12-12T04:19:01.958Z,102482.17
2018-12-12T04:21:31.211Z,102477.20
2018-12-12T04:24:00.287Z,102483.85
2018-12-12T04:26:29.079Z,102485.18
2018-12-12T04:28:58.546Z,102480.38
2018-12-12T04:31:27.216Z,102489.53
2018-12-12T04:33:55.810Z,102489.51
2018-12-12T04:36:25.253Z,102491.66
2018-12-12T04:38:56.592Z,102496.39
2018-12-12T04:41:25.337Z,102498.19
2018-12-12T04:43:54.840Z,102500.80
2018-12-12T04:46:24.551Z,102482.41
2018-12-12T04:48:55.960Z,102500.69
2018-12-12T04:51:26.054Z,102496.55
2018-12-12T04:53:54.764Z,102498.63
2018-12-12T04:56:23.422Z,102502.51
2018-12-12T04:58:52.891Z,102505.09
2018-12-12T05:01:21.544Z,102503.73
2018-12-12T05:03:50.872Z,102505.60
2018-12-12T05:06:19.979Z,102513.02
2018-12-12T05:08:48.760Z,102516.86
2018-12-12T05:11:19.497Z,102512.88
2018-12-12T05:13:48.364Z,102508.91
2018-12-12T05:16:18.814Z,102511.05
2018-12-12T05:18:48.132Z,102515.36
2018-12-12T05:21:17.689Z,102509.14
2018-12-12T05:23:47.408Z,102516.62
2018-12-12T05:26:16.107Z,102525.94
2018-12-12T05:28:44.830Z,102532.19
2018-12-12T05:31:13.603Z,102533.95
2018-12-12T05:33:42.335Z,102536.17
2018-12-12T05:36:11.243Z,102534.91
2018-12-12T05:38:39.871Z,102538.03
2018-12-12T05:41:08.584Z,102536.70
2018-12-12T05:43:38.127Z,102537.21
2018-12-12T05:46:08.648Z,102536.87
2018-12-12T05:48:37.436Z,102539.14
2018-12-12T05:51:06.472Z,102538.63
2018-12-12T05:53:36.133Z,102544.59
2018-12-12T05:56:04.989Z,102548.48
2018-12-12T05:58:33.756Z,102542.17
2018-12-12T06:01:02.790Z,102542.52
2018-12-12T06:03:32.078Z,102546.49
2018-12-12T06:06:00.897Z,102545.52
2018-12-12T06:08:30.344Z,102552.17
2018-12-12T06:10:58.982Z,102555.33
2018-12-12T06:13:29.052Z,102557.50
2018-12-12T06:15:57.722Z,102561.98
2018-12-12T06:18:27.343Z,102565.90
2018-12-12T06:20:56.325Z,102565.93
2018-12-12T06:23:26.383Z,102573.47
2018-12-12T06:25:55.072Z,102571.58
2018-12-12T06:28:24.019Z,102571.55
2018-12-12T06:30:52.703Z,102575.14
2018-12-12T06:33:22.037Z,102584.05
2018-12-12T06:35:50.832Z,102580.51
2018-12-12T06:38:19.689Z,102583.34
2018-12-12T06:40:48.474Z,102588.58
2018-12-12T06:43:18.683Z,102587.58
2018-12-12T06:45:47.812Z,102591.20
2018-12-12T06:48:17.564Z,102588.96
2018-12-12T06:50:46.356Z,102583.19
2018-12-12T06:53:15.327Z,102587.20
2018-12-12T06:55:45.135Z,102588.11
2018-12-12T06:58:14.688Z,102593.97
2018-12-12T07:00:44.447Z,102594.00
2018-12-12T07:03:13.175Z,102593.03
2018-12-12T07:05:42.566Z,102598.03
2018-12-12T07:08:11.310Z,102595.80
2018-12-12T07:10:42.660Z,102609.43
2018-12-12T07:13:11.718Z,102606.40
2018-12-12T07:15:40.458Z,102605.98
2018-12-12T07:18:09.232Z,102604.16
2018-12-12T07:20:38.142Z,102608.10
2018-12-12T07:23:09.629Z,102604.19
2018-12-12T07:25:38.786Z,102606.45
2018-12-12T07:28:09.728Z,102606.37
2018-12-12T07:30:39.667Z,102610.81
2018-12-12T07:33:08.511Z,102611.67
2018-12-12T07:35:38.291Z,102610.87
2018-12-12T07:38:07.671Z,102613.13
2018-12-12T07:40:36.441Z,102615.29
2018-12-12T07:43:05.120Z,102624.13
2018-12-12T07:45:34.609Z,102630.75
2018-12-12T07:48:03.926Z,102633.25
2018-12-12T07:50:33.077Z,102638.58
2018-12-12T07:53:01.991Z,102640.80
2018-12-12T07:55:31.771Z,102638.94
2018-12-12T07:58:02.518Z,102648.19
2018-12-12T08:00:32.382Z,102651.66
2018-12-12T08:03:06.318Z,102651.70
2018-12-12T08:05:35.332Z,102650.69
2018-12-12T08:08:04.312Z,102647.92
2018-12-12T08:10:33.374Z,102654.91
2018-12-12T08:13:02.274Z,102656.34
2018-12-12T08:15:31.537Z,102661.21
2018-12-12T08:18:00.146Z,102661.77
2018-12-12T08:20:28.939Z,102662.09
2018-12-12T08:22:58.473Z,102660.03
2018-12-12T08:25:27.846Z,102656.16
2018-12-12T08:27:57.359Z,102659.65
2018-12-12T08:30:27.710Z,102661.85
2018-12-12T08:32:56.607Z,102661.27
2018-12-12T08:35:25.386Z,102670.52
2018-12-12T08:37:54.201Z,102669.64
2018-12-12T08:40:22.836Z,102666.89
2018-12-12T08:42:51.686Z,102665.16
2018-12-12T08:45:20.411Z,102670.81
2018-12-12T08:47:49.160Z,102668.11
2018-12-12T08:50:17.948Z,102670.22
2018-12-12T08:52:46.664Z,102668.87
2018-12-12T08:55:17.789Z,102676.00
2018-12-12T08:57:46.397Z,102674.58
2018-12-12T09:00:15.508Z,102674.58
2018-12-12T09:02:45.262Z,102678.15
2018-12-12T09:05:14.777Z,102681.59
2018-12-12T09:07:44.265Z,102681.98
2018-12-12T09:10:13.307Z,102680.55
2018-12-12T09:12:43.601Z,102679.17
2018-12-12T09:15:13.503Z,102680.14
2018-12-12T09:17:42.576Z,102679.20
2018-12-12T09:20:13.784Z,102676.48
2018-12-12T09:22:43.089Z,102690.25
2018-12-12T09:25:12.640Z,102693.47
2018-12-12T09:27:42.020Z,102701.18
2018-12-12T09:30:11.092Z,102702.92
2018-12-12T09:32:40.525Z,102700.73
2018-12-12T09:35:11.058Z,102706.52
2018-12-12T09:37:39.994Z,102703.73
2018-12-12T09:40:10.696Z,102708.61
2018-12-12T09:42:39.566Z,102705.98
2018-12-12T09:45:09.258Z,102711.03
2018-12-12T09:47:38.398Z,102709.61
2018-12-12T09:50:07.361Z,102711.00
2018-12-12T09:52:37.023Z,102711.98
2018-12-12T09:55:06.120Z,102715.86
2018-12-12T09:57:34.799Z,102714.33
2018-12-12T10:00:05.021Z,102725.77
2018-12-12T10:02:33.700Z,102714.63
2018-12-12T10:05:02.401Z,102722.97
2018-12-12T10:07:32.041Z,102722.09
2018-12-12T10:10:00.747Z,102717.22
2018-12-12T10:12:29.397Z,102719.88
2018-12-12T10:14:58.959Z,102723.34
2018-12-12T10:17:30.603Z,102725.59
2018-12-12T10:20:00.144Z,102725.23
2018-12-12T10:22:31.930Z,102731.92
2018-12-12T10:25:00.644Z,102732.28
2018-12-12T10:27:29.648Z,102728.21
2018-12-12T10:29:58.303Z,102729.86
2018-12-12T10:32:26.957Z,102722.84
2018-12-12T10:34:55.807Z,102726.86
2018-12-12T10:37:24.467Z,102728.06
2018-12-12T10:39:53.256Z,102724.94
2018-12-12T10:42:22.215Z,102718.96
2018-12-12T10:44:51.909Z,102717.86
2018-12-12T10:47:22.360Z,102718.20
2018-12-12T10:49:51.252Z,102720.04
2018-12-12T10:52:20.037Z,102711.73
2018-12-12T10:54:49.847Z,102718.36
2018-12-12T10:57:18.911Z,102723.10
2018-12-12T10:59:48.351Z,102726.07
2018-12-12T11:02:23.513Z,102720.66
2018-12-12T11:04:53.432Z,102716.02
2018-12-12T11:07:22.151Z,102713.97
2018-12-12T11:09:50.867Z,102706.92
2018-12-12T11:12:19.607Z,102713.11
2018-12-12T11:14:49.311Z,102713.91
2018-12-12T11:17:19.681Z,102705.69
2018-12-12T11:19:48.456Z,102713.91
2018-12-12T11:22:18.298Z,102706.80
2018-12-12T11:24:49.004Z,102709.67
2018-12-12T11:27:18.970Z,102713.11
2018-12-12T11:29:48.346Z,102711.44
2018-12-12T11:32:18.312Z,102712.27
2018-12-12T11:34:47.999Z,102709.41
2018-12-12T11:37:16.788Z,102714.14
2018-12-12T11:39:46.528Z,102717.61
2018-12-12T11:42:16.486Z,102714.14
2018-12-12T11:44:45.436Z,102716.18
2018-12-12T11:47:14.811Z,102715.81
2018-12-12T11:49:43.663Z,102713.90
2018-12-12T11:52:12.519Z,102714.11
2018-12-12T11:54:41.528Z,102708.69
2018-12-12T11:57:10.640Z,102713.48
2018-12-12T11:59:39.386Z,102710.73
2018-12-12T12:02:08.188Z,102710.36
2018-12-12T12:04:39.785Z,102709.88
2018-12-12T12:07:09.249Z,102708.95
2018-12-12T12:09:38.681Z,102712.13
2018-12-12T12:12:08.801Z,102705.87
2018-12-12T12:14:37.626Z,102709.67
2018-12-12T12:17:07.090Z,102714.50
2018-12-12T12:19:36.058Z,102712.30
2018-12-12T12:22:04.984Z,102710.45
2018-12-12T12:24:33.716Z,102710.49
2018-12-12T12:27:03.669Z,102716.05
2018-12-12T12:29:33.952Z,102717.44
2018-12-12T12:32:03.835Z,102720.07
2018-12-12T12:34:32.507Z,102715.58
2018-12-12T12:37:02.055Z,102725.47
2018-12-12T12:39:30.819Z,102727.55
2018-12-12T12:41:59.571Z,102715.48
2018-12-12T12:44:28.397Z,102720.89
2018-12-12T12:46:57.310Z,102726.77
2018-12-12T12:49:26.963Z,102721.23
2018-12-12T12:51:55.744Z,102722.81
2018-12-12T12:54:24.471Z,102713.38
2018-12-12T12:56:53.160Z,102711.77
2018-12-12T12:59:23.003Z,102718.71
2018-12-12T13:01:52.267Z,102715.59
2018-12-12T13:04:22.960Z,102725.00
2018-12-12T13:06:52.350Z,102722.75
2018-12-12T13:09:21.240Z,102717.23
2018-12-12T13:11:50.199Z,102715.23
2018-12-12T13:14:19.118Z,102715.16
2018-12-12T13:16:49.038Z,102711.37
2018-12-12T13:19:18.417Z,102714.92
2018-12-12T13:21:47.658Z,102713.71
2018-12-12T13:24:16.667Z,102712.70
2018-12-12T13:26:53.201Z,102712.67
2018-12-12T13:29:18.744Z,102715.01
2018-12-12T13:31:49.633Z,102706.58
2018-12-12T13:34:18.404Z,102713.12
2018-12-12T13:36:47.825Z,102716.06
2018-12-12T13:39:17.501Z,102714.16
2018-12-12T13:41:46.203Z,102711.92
2018-12-12T13:44:15.218Z,102717.13
2018-12-12T13:46:43.943Z,102713.75
2018-12-12T13:49:13.161Z,102709.83
2018-12-12T13:51:43.043Z,102710.21
2018-12-12T13:54:12.009Z,102713.69
2018-12-12T13:56:40.926Z,102719.56
2018-12-12T13:59:10.968Z,102716.12
2018-12-12T14:01:40.318Z,102712.93
2018-12-12T14:04:09.089Z,102717.04
2018-12-12T14:06:37.994Z,102716.44
2018-12-12T14:09:07.577Z,102724.42
2018-12-12T14:11:36.255Z,102725.37
2018-12-12T14:14:05.019Z,102728.41
2018-12-12T14:16:33.807Z,102725.97
2018-12-12T14:19:02.550Z,102727.36
2018-12-12T14:21:31.328Z,102719.84
2018-12-12T14:24:00.734Z,102721.39
2018-12-12T14:26:29.396Z,102712.11
2018-12-12T14:28:59.482Z,102715.77
2018-12-12T14:31:29.125Z,102715.83
2018-12-12T14:33:57.851Z,102718.11
2018-12-12T14:36:26.783Z,102716.95
2018-12-12T14:38:55.570Z,102711.30
2018-12-12T14:41:24.311Z,102708.63
2018-12-12T14:43:53.307Z,102713.04
2018-12-12T14:46:21.974Z,102712.09
2018-12-12T14:48:50.713Z,102711.20
2018-12-12T14:51:19.572Z,102711.71
2018-12-12T14:53:48.420Z,102709.15
2018-12-12T14:56:18.613Z,102708.53
2018-12-12T14:58:48.738Z,102713.39
2018-12-12T15:01:20.830Z,102711.66
2018-12-12T15:03:50.173Z,102712.09
2018-12-12T15:06:19.804Z,102717.72
2018-12-12T15:08:48.545Z,102719.25
2018-12-12T15:11:18.595Z,102720.75
2018-12-12T15:13:47.575Z,102719.52
2018-12-12T15:16:17.192Z,102722.13
2018-12-12T15:18:46.001Z,102726.82
2018-12-12T15:21:15.598Z,102730.92
2018-12-12T15:23:44.910Z,102723.86
2018-12-12T15:26:13.824Z,102724.38
2018-12-12T15:28:42.742Z,102722.66
2018-12-12T15:31:12.891Z,102723.59
2018-12-12T15:33:41.727Z,102721.84
2018-12-12T15:36:11.445Z,102718.88
2018-12-12T15:38:41.436Z,102719.83
2018-12-12T15:41:12.150Z,102719.48
2018-12-12T15:43:41.144Z,102728.73
2018-12-12T15:46:09.863Z,102723.42
2018-12-12T15:48:38.855Z,102725.35
2018-12-12T15:51:07.505Z,102721.89
2018-12-12T15:53:36.228Z,102729.96
2018-12-12T15:56:05.579Z,102729.99
2018-12-12T15:58:35.936Z,102730.89
2018-12-12T16:01:04.765Z,102731.32
2018-12-12T16:03:33.744Z,102728.27
2018-12-12T16:06:02.405Z,102735.80
2018-12-12T16:08:31.068Z,102733.61
2018-12-12T16:10:59.880Z,102740.34
2018-12-12T16:13:29.442Z,102736.86
2018-12-12T16:15:58.119Z,102742.14
2018-12-12T16:18:26.951Z,102742.20
2018-12-12T16:20:55.599Z,102740.55
2018-12-12T16:23:25.308Z,102735.69
2018-12-12T16:25:54.076Z,102739.66
2018-12-12T16:28:23.480Z,102735.27
2018-12-12T16:30:53.722Z,102734.40
2018-12-12T16:33:23.108Z,102732.23
2018-12-12T16:35:52.593Z,102739.34
2018-12-12T16:38:22.195Z,102742.02
2018-12-12T16:40:51.560Z,102746.42
2018-12-12T16:43:20.328Z,102744.70
2018-12-12T16:45:49.170Z,102741.21
2018-12-12T16:48:18.912Z,102740.34
2018-12-12T16:50:48.739Z,102743.00
2018-12-12T16:53:17.469Z,102743.40
2018-12-12T16:55:47.143Z,102735.86
2018-12-12T16:58:16.465Z,102739.83
2018-12-12T17:00:45.763Z,102739.00
2018-12-12T17:03:14.711Z,102737.22
2018-12-12T17:05:43.502Z,102749.14
2018-12-12T17:08:12.157Z,102755.34
2018-12-12T17:10:43.636Z,102742.08
2018-12-12T17:13:14.528Z,102746.48
2018-12-12T17:15:45.513Z,102745.52
2018-12-12T17:18:14.914Z,102739.38
2018-12-12T17:20:43.641Z,102737.30
2018-12-12T17:23:13.858Z,102734.16
2018-12-12T17:25:42.565Z,102737.24
2018-12-12T17:28:13.407Z,102740.27
2018-12-12T17:30:42.422Z,102741.13
2018-12-12T17:33:11.255Z,102741.09
2018-12-12T17:35:40.999Z,102743.73
2018-12-12T17:38:11.355Z,102744.70
2018-12-12T17:40:40.281Z,102747.82
2018-12-12T17:43:10.233Z,102753.56
2018-12-12T17:45:39.221Z,102751.31
2018-12-12T17:48:07.948Z,102746.08
2018-12-12T17:50:38.043Z,102748.29
2018-12-12T17:53:07.565Z,102738.94
2018-12-12T17:55:38.239Z,102744.27
2018-12-12T17:58:08.232Z,102742.00
2018-12-12T18:00:38.503Z,102744.19
2018-12-12T18:03:07.135Z,102746.93
2018-12-12T18:05:37.219Z,102742.88
2018-12-12T18:08:06.140Z,102745.89
2018-12-12T18:10:35.746Z,102743.28
2018-12-12T18:13:05.522Z,102744.55
2018-12-12T18:15:35.111Z,102744.17
2018-12-12T18:18:04.985Z,102738.03
2018-12-12T18:20:34.371Z,102740.62
2018-12-12T18:23:03.970Z,102741.94
2018-12-12T18:25:33.301Z,102741.09
2018-12-12T18:28:02.546Z,102741.55
2018-12-12T18:30:32.174Z,102744.27
2018-12-12T18:33:00.888Z,102746.97
2018-12-12T18:35:31.136Z,102741.63
2018-12-12T18:38:01.982Z,102748.67
2018-12-12T18:40:30.799Z,102745.57
2018-12-12T18:43:00.348Z,102747.72
2018-12-12T18:45:29.245Z,102742.40
2018-12-12T18:47:58.680Z,102740.20
2018-12-12T18:50:28.228Z,102741.53
2018-12-12T18:52:57.057Z,102737.97
2018-12-12T18:55:26.703Z,102742.74
2018-12-12T18:57:56.540Z,102741.03
2018-12-12T19:00:26.757Z,102743.70
2018-12-12T19:02:57.555Z,102748.08
2018-12-12T19:05:28.433Z,102746.36
2018-12-12T19:07:57.359Z,102746.72
2018-12-12T19:10:27.536Z,102750.23
2018-12-12T19:12:56.618Z,102746.70
2018-12-12T19:15:26.790Z,102744.13
2018-12-12T19:17:55.730Z,102746.30
2018-12-12T19:20:25.699Z,102745.02
2018-12-12T19:22:54.363Z,102742.39
2018-12-12T19:25:23.603Z,102750.80
2018-12-12T19:27:53.927Z,102749.13
2018-12-12T19:30:22.717Z,102756.13
2018-12-12T19:32:51.535Z,102757.47
2018-12-12T19:35:21.726Z,102761.80
2018-12-12T19:37:51.349Z,102758.18
2018-12-12T19:40:20.106Z,102758.20
2018-12-12T19:42:50.862Z,102756.70
2018-12-12T19:45:19.593Z,102748.83
2018-12-12T19:47:48.951Z,102750.72
2018-12-12T19:50:17.937Z,102754.31
2018-12-12T19:52:48.512Z,102753.98
2018-12-12T19:55:17.325Z,102761.92
2018-12-12T19:57:46.189Z,102762.83
2018-12-12T20:00:14.885Z,102766.74
2018-12-12T20:02:43.767Z,102768.98
2018-12-12T20:05:12.785Z,102768.97
2018-12-12T20:07:42.362Z,102761.86
2018-12-12T20:10:11.904Z,102768.84
2018-12-12T20:12:41.373Z,102764.42
2018-12-12T20:15:14.921Z,102765.75
2018-12-12T20:17:45.096Z,102765.29
2018-12-12T20:20:14.577Z,102770.56
2018-12-12T20:22:43.799Z,102766.58
2018-12-12T20:25:13.152Z,102765.23
2018-12-12T20:27:42.483Z,102762.64
2018-12-12T20:30:12.004Z,102761.34
2018-12-12T20:32:41.351Z,102767.55
2018-12-12T20:35:11.269Z,102771.59
2018-12-12T20:37:40.947Z,102773.86
2018-12-12T20:40:11.033Z,102770.83
2018-12-12T20:42:41.134Z,102774.42
2018-12-12T20:45:10.689Z,102773.05
2018-12-12T20:47:40.284Z,102774.84
2018-12-12T20:50:09.428Z,102772.26
2018-12-12T20:52:38.782Z,102775.34
2018-12-12T20:55:09.008Z,102781.53
2018-12-12T20:57:39.718Z,102775.84
2018-12-12T21:00:09.761Z,102779.81
2018-12-12T21:02:39.363Z,102782.96
2018-12-12T21:05:08.612Z,102785.99
2018-12-12T21:07:37.653Z,102790.46
2018-12-12T21:10:07.113Z,102793.52
2018-12-12T21:12:36.692Z,102789.09
2018-12-12T21:15:08.330Z,102794.85
2018-12-12T21:17:38.144Z,102786.41
2018-12-12T21:20:08.930Z,102787.65
2018-12-12T21:22:37.995Z,102787.17
2018-12-12T21:25:08.181Z,102785.82
2018-12-12T21:27:37.670Z,102787.03
2018-12-12T21:30:07.990Z,102787.90
2018-12-12T21:32:37.311Z,102783.39
2018-12-12T21:35:07.584Z,102786.89
2018-12-12T21:37:36.528Z,102781.62
2018-12-12T21:40:06.650Z,102778.89
2018-12-12T21:42:35.530Z,102777.12
2018-12-12T21:45:05.242Z,102774.52
2018-12-12T21:47:34.868Z,102770.56
2018-12-12T21:50:05.824Z,102774.53
2018-12-12T21:52:34.765Z,102771.09
2018-12-12T21:55:03.670Z,102766.67
2018-12-12T21:57:32.989Z,102766.20
2018-12-12T22:00:04.459Z,102771.82
2018-12-12T22:02:34.147Z,102769.61
2018-12-12T22:05:04.788Z,102764.79
2018-12-12T22:07:36.330Z,102768.61
2018-12-12T22:10:07.674Z,102773.43
2018-12-12T22:12:38.213Z,102772.63
2018-12-12T22:15:08.841Z,102776.53
2018-12-12T22:17:41.785Z,102773.91
2018-12-12T22:20:10.715Z,102773.59
2018-12-12T22:22:40.764Z,102778.02
2018-12-12T22:25:11.252Z,102783.38
2018-12-12T22:27:41.248Z,102783.45
2018-12-12T22:30:13.144Z,102789.16
2018-12-12T22:32:43.387Z,102789.53
2018-12-12T22:35:14.633Z,102793.16
2018-12-12T22:37:44.101Z,102792.72
2018-12-12T22:40:12.804Z,102786.17
2018-12-12T22:42:41.882Z,102781.48
2018-12-12T22:45:11.789Z,102783.64
2018-12-12T22:47:40.682Z,102779.27
2018-12-12T22:50:10.489Z,102780.09
2018-12-12T22:52:40.538Z,102782.27
2018-12-12T22:55:10.110Z,102779.16
2018-12-12T22:57:40.017Z,102780.11
2018-12-12T23:00:10.563Z,102787.59
2018-12-12T23:02:41.453Z,102780.50
2018-12-12T23:05:10.537Z,102783.63
2018-12-12T23:07:49.183Z,102787.59
2018-12-12T23:10:18.610Z,102783.67
2018-12-12T23:12:48.092Z,102779.18
2018-12-12T23:15:17.705Z,102779.97
2018-12-12T23:17:47.597Z,102785.23
2018-12-12T23:20:17.103Z,102781.29
2018-12-12T23:22:47.819Z,102784.84
2018-12-12T23:25:17.671Z,102779.09
2018-12-12T23:27:48.000Z,102785.69
2018-12-12T23:30:17.865Z,102782.64
2018-12-12T23:32:48.149Z,102777.70
2018-12-12T23:35:17.977Z,102782.61
2018-12-12T23:37:47.791Z,102779.09
2018-12-12T23:40:17.052Z,102776.38
2018-12-12T23:42:46.067Z,102767.94
2018-12-12T23:45:15.423Z,102767.02
2018-12-12T23:47:44.665Z,102764.78
2018-12-12T23:50:14.478Z,102759.94
2018-12-12T23:52:43.673Z,102758.98
2018-12-12T23:55:12.711Z,102757.16
2018-12-12T23:57:42.772Z,102755.34
